createdAt,value
2022-10-23T00:01:21.991Z,9.23
2022-10-23T00:03:54.417Z,11.30
2022-10-23T00:06:22.622Z,9.50
2022-10-23T00:08:50.934Z,11.20
2022-10-23T00:11:22.341Z,8.23
2022-10-23T00:13:54.365Z,8.93
2022-10-23T00:16:23.118Z,9.13
2022-10-23T00:18:51.674Z,12.73
2022-10-23T00:21:20.275Z,12.03
2022-10-23T00:23:48.410Z,9.13
2022-10-23T00:26:17.672Z,7.97
2022-10-23T00:28:48.381Z,10.90
2022-10-23T00:31:18.689Z,10.07
2022-10-23T00:33:47.337Z,9.83
2022-10-23T00:36:17.686Z,10.03
2022-10-23T00:38:46.701Z,8.43
2022-10-23T00:41:18.861Z,8.33
2022-10-23T00:44:03.102Z,9.87
2022-10-23T00:46:33.155Z,8.67
2022-10-23T00:49:02.027Z,7.27
2022-10-23T00:51:34.989Z,8.73
2022-10-23T00:54:24.083Z,8.87
2022-10-23T00:56:55.837Z,8.87
2022-10-23T00:59:24.665Z,9.80
2022-10-23T01:01:54.760Z,10.63
2022-10-23T01:04:23.953Z,6.60
2022-10-23T01:07:00.708Z,9.07
2022-10-23T01:09:33.777Z,9.40
2022-10-23T01:12:10.278Z,9.07
2022-10-23T01:14:44.863Z,12.67
2022-10-23T01:17:20.101Z,9.67
2022-10-23T01:19:57.904Z,8.70
2022-10-23T01:22:44.103Z,11.90
2022-10-23T01:25:24.877Z,9.37
2022-10-23T01:27:59.021Z,9.30
2022-10-23T01:30:27.375Z,9.83
2022-10-23T01:33:00.162Z,8.90
2022-10-23T01:35:32.750Z,9.90
2022-10-23T01:38:08.902Z,12.37
2022-10-23T01:40:44.371Z,12.93
2022-10-23T01:43:17.734Z,10.13
2022-10-23T01:45:51.004Z,13.80
2022-10-23T01:48:23.242Z,10.73
2022-10-23T01:50:54.498Z,12.97
2022-10-23T01:53:24.088Z,10.57
2022-10-23T01:55:53.059Z,12.70
2022-10-23T01:58:24.171Z,9.60
2022-10-23T02:00:53.993Z,11.43
2022-10-23T02:03:23.972Z,9.53
2022-10-23T02:05:52.203Z,14.00
2022-10-23T02:08:20.408Z,13.57
2022-10-23T02:10:56.254Z,14.83
2022-10-23T02:13:30.146Z,12.67
2022-10-23T02:16:05.313Z,12.20
2022-10-23T02:18:40.235Z,12.50
2022-10-23T02:21:13.240Z,12.30
2022-10-23T02:23:49.536Z,20.00
2022-10-23T02:26:23.111Z,12.73
2022-10-23T02:28:58.321Z,12.23
2022-10-23T02:31:26.725Z,11.43
2022-10-23T02:33:55.042Z,13.97
2022-10-23T02:36:23.380Z,12.93
2022-10-23T02:38:51.774Z,10.57
2022-10-23T02:41:33.978Z,13.60
2022-10-23T02:44:15.897Z,11.70
2022-10-23T02:46:52.367Z,15.40
2022-10-23T02:49:26.515Z,14.57
2022-10-23T02:52:01.654Z,11.60
2022-10-23T02:54:52.897Z,20.00
2022-10-23T02:57:26.508Z,10.93
2022-10-23T03:00:04.021Z,10.53
2022-10-23T03:02:38.366Z,11.43
2022-10-23T03:05:09.892Z,13.33
2022-10-23T03:07:40.400Z,13.47
2022-10-23T03:10:10.425Z,16.20
2022-10-23T03:12:39.338Z,11.70
2022-10-23T03:15:11.905Z,22.77
2022-10-23T03:17:40.065Z,11.30
2022-10-23T03:20:10.163Z,13.13
2022-10-23T03:22:38.992Z,19.40
2022-10-23T03:25:08.114Z,12.77
2022-10-23T03:27:36.454Z,12.23
2022-10-23T03:30:06.869Z,13.53
2022-10-23T03:32:36.435Z,15.77
2022-10-23T03:35:04.847Z,13.20
2022-10-23T03:37:33.032Z,10.27
2022-10-23T03:40:01.338Z,16.67
2022-10-23T03:42:29.474Z,11.13
2022-10-23T03:44:57.843Z,11.33
2022-10-23T03:47:26.092Z,14.17
2022-10-23T03:49:55.527Z,12.90
2022-10-23T03:54:52.940Z,11.67
2022-10-23T03:57:21.096Z,12.13
2022-10-23T03:59:49.268Z,11.37
2022-10-23T04:02:17.721Z,10.77
2022-10-23T04:04:45.937Z,15.97
2022-10-23T04:07:15.842Z,11.83
2022-10-23T04:09:44.115Z,13.90
2022-10-23T04:12:12.249Z,14.97
2022-10-23T04:14:40.338Z,12.63
2022-10-23T04:17:08.690Z,12.23
2022-10-23T04:19:36.816Z,12.43
2022-10-23T04:22:04.942Z,11.83
2022-10-23T04:24:34.890Z,12.10
2022-10-23T04:27:03.103Z,14.10
2022-10-23T04:29:32.488Z,15.13
2022-10-23T04:32:00.695Z,14.40
2022-10-23T04:34:28.844Z,19.40
2022-10-23T04:36:56.922Z,20.53
2022-10-23T04:39:25.582Z,17.03
2022-10-23T04:41:55.057Z,18.70
2022-10-23T04:44:23.183Z,13.27
2022-10-23T04:46:51.451Z,18.20
2022-10-23T04:49:19.537Z,15.37
2022-10-23T04:51:47.632Z,17.37
2022-10-23T04:54:16.140Z,16.83
2022-10-23T04:56:44.267Z,15.27
2022-10-23T04:59:13.761Z,15.50
2022-10-23T05:01:42.050Z,15.73
2022-10-23T05:04:10.200Z,13.77
2022-10-23T05:06:38.385Z,15.67
2022-10-23T05:09:06.709Z,15.13
2022-10-23T05:11:34.791Z,18.37
2022-10-23T05:14:02.880Z,15.47
2022-10-23T05:16:39.220Z,15.67
2022-10-23T05:19:10.669Z,16.13
2022-10-23T05:21:40.388Z,25.17
2022-10-23T05:24:08.952Z,13.07
2022-10-23T05:26:37.139Z,15.80
2022-10-23T05:29:05.434Z,18.37
2022-10-23T05:31:36.100Z,15.33
2022-10-23T05:34:04.278Z,19.83
2022-10-23T05:36:33.009Z,14.77
2022-10-23T05:39:01.104Z,14.03
2022-10-23T05:41:29.252Z,13.10
2022-10-23T05:43:58.066Z,15.40
2022-10-23T05:46:27.942Z,16.43
2022-10-23T05:51:25.863Z,13.40
2022-10-23T05:53:56.120Z,16.13
2022-10-23T05:56:24.336Z,16.17
2022-10-23T05:58:52.469Z,19.80
2022-10-23T06:01:20.639Z,15.67
2022-10-23T06:03:49.468Z,14.47
2022-10-23T06:06:19.090Z,14.60
2022-10-23T06:08:47.216Z,13.93
2022-10-23T06:11:16.464Z,12.80
2022-10-23T06:13:46.590Z,19.77
2022-10-23T06:16:16.989Z,13.30
2022-10-23T06:18:45.999Z,13.57
2022-10-23T06:21:15.555Z,13.30
2022-10-23T06:23:46.456Z,17.43
2022-10-23T06:26:16.889Z,15.67
2022-10-23T06:28:45.171Z,14.87
2022-10-23T06:31:15.396Z,13.97
2022-10-23T06:33:44.166Z,17.73
2022-10-23T06:36:12.962Z,14.40
2022-10-23T06:38:41.536Z,13.43
2022-10-23T06:41:15.741Z,16.57
2022-10-23T06:43:43.942Z,19.03
2022-10-23T06:46:12.001Z,17.97
2022-10-23T06:48:42.521Z,14.30
2022-10-23T06:51:14.201Z,16.13
2022-10-23T06:53:42.581Z,17.73
2022-10-23T06:56:13.193Z,18.93
2022-10-23T06:58:41.781Z,15.03
2022-10-23T07:01:13.248Z,15.33
2022-10-23T07:03:41.558Z,15.87
2022-10-23T07:06:11.930Z,12.70
2022-10-23T07:08:40.172Z,15.07
2022-10-23T07:11:10.558Z,15.47
2022-10-23T07:13:42.628Z,13.00
2022-10-23T07:16:13.025Z,12.83
2022-10-23T07:18:41.334Z,18.70
2022-10-23T07:21:09.552Z,12.20
2022-10-23T07:23:38.047Z,13.47
2022-10-23T07:26:11.213Z,12.73
2022-10-23T07:28:41.749Z,12.27
2022-10-23T07:31:10.570Z,14.03
2022-10-23T07:33:38.859Z,12.80
2022-10-23T07:36:09.487Z,12.13
2022-10-23T07:38:39.770Z,14.77
2022-10-23T07:41:11.525Z,11.17
2022-10-23T07:43:42.337Z,13.97
2022-10-23T07:46:10.666Z,11.83
2022-10-23T07:48:39.053Z,15.50
2022-10-23T07:51:11.137Z,12.67
2022-10-23T07:53:40.096Z,11.07
2022-10-23T07:56:15.525Z,11.80
2022-10-23T07:58:45.419Z,11.00
2022-10-23T08:01:18.897Z,14.53
2022-10-23T08:03:47.432Z,15.40
2022-10-23T08:06:15.786Z,12.50
2022-10-23T08:11:14.071Z,11.67
2022-10-23T08:13:43.930Z,11.60
2022-10-23T08:16:13.913Z,12.40
2022-10-23T08:18:42.836Z,13.53
2022-10-23T08:21:11.941Z,9.53
2022-10-23T08:23:40.501Z,12.07
2022-10-23T08:26:09.776Z,11.53
2022-10-23T08:28:38.792Z,10.33
2022-10-23T08:31:11.161Z,12.40
2022-10-23T08:33:41.386Z,10.93
2022-10-23T08:36:17.949Z,10.77
2022-10-23T08:38:46.722Z,9.20
2022-10-23T08:41:25.957Z,11.57
2022-10-23T08:43:59.381Z,10.27
2022-10-23T08:46:32.614Z,8.43
2022-10-23T08:49:21.716Z,7.97
2022-10-23T08:51:53.828Z,8.40
2022-10-23T08:54:26.819Z,6.00
2022-10-23T08:56:59.549Z,10.00
2022-10-23T08:59:33.241Z,5.70
2022-10-23T09:02:05.729Z,6.23
2022-10-23T09:04:36.162Z,5.47
2022-10-23T09:07:17.214Z,6.70
2022-10-23T09:09:57.002Z,7.90
2022-10-23T09:12:26.972Z,5.57
2022-10-23T09:15:05.549Z,5.27
2022-10-23T09:17:35.874Z,6.03
2022-10-23T09:20:15.545Z,4.80
2022-10-23T09:22:44.581Z,5.87
2022-10-23T09:25:18.697Z,4.00
2022-10-23T09:27:51.896Z,4.13
2022-10-23T09:30:28.835Z,4.73
2022-10-23T09:32:57.038Z,4.63
2022-10-23T09:35:29.162Z,3.60
2022-10-23T09:37:57.465Z,3.07
2022-10-23T09:40:34.600Z,6.37
2022-10-23T09:43:16.573Z,3.10
2022-10-23T09:45:45.218Z,4.03
2022-10-23T09:48:15.029Z,2.90
2022-10-23T09:50:53.408Z,4.50
2022-10-23T09:53:34.575Z,3.57
2022-10-23T09:56:08.025Z,3.23
2022-10-23T09:58:39.742Z,4.50
2022-10-23T10:01:08.109Z,4.33
2022-10-23T10:03:39.001Z,3.33
2022-10-23T10:06:24.411Z,4.73
2022-10-23T10:08:56.022Z,3.80
2022-10-23T10:11:31.333Z,3.17
2022-10-23T10:14:23.813Z,4.30
2022-10-23T10:16:54.502Z,5.27
2022-10-23T10:19:37.387Z,4.80
2022-10-23T10:22:19.680Z,3.80
2022-10-23T10:24:52.521Z,3.10
2022-10-23T10:27:40.429Z,3.50
2022-10-23T10:30:14.714Z,3.73
2022-10-23T10:32:48.589Z,7.40
2022-10-23T10:35:34.744Z,3.50
2022-10-23T10:38:46.950Z,3.40
2022-10-23T10:41:47.822Z,7.40
2022-10-23T10:44:43.682Z,2.90
2022-10-23T10:47:21.190Z,5.10
2022-10-23T10:49:57.222Z,4.37
2022-10-23T10:52:33.086Z,2.83
2022-10-23T10:55:10.257Z,3.13
2022-10-23T10:57:43.391Z,5.07
2022-10-23T11:00:17.069Z,3.83
2022-10-23T11:02:48.440Z,4.23
2022-10-23T11:05:33.214Z,4.53
2022-10-23T11:08:08.756Z,4.87
2022-10-23T11:10:43.373Z,3.57
2022-10-23T11:13:27.682Z,4.83
2022-10-23T11:16:00.175Z,3.80
2022-10-23T11:18:31.674Z,8.07
2022-10-23T11:21:09.521Z,4.63
2022-10-23T11:24:27.289Z,5.97
2022-10-23T11:27:21.513Z,3.20
2022-10-23T11:30:10.455Z,3.63
2022-10-23T11:33:20.424Z,3.27
2022-10-23T11:36:00.817Z,6.53
2022-10-23T11:38:32.417Z,5.47
2022-10-23T11:41:03.797Z,4.00
2022-10-23T11:43:37.021Z,3.57
2022-10-23T11:46:15.644Z,4.77
2022-10-23T11:48:45.218Z,4.47
2022-10-23T11:51:29.280Z,4.33
2022-10-23T11:54:24.754Z,5.87
2022-10-23T11:56:56.478Z,3.40
2022-10-23T11:59:29.630Z,3.77
2022-10-23T12:02:00.854Z,3.60
2022-10-23T12:04:34.641Z,3.67
2022-10-23T12:07:05.446Z,3.53
2022-10-23T12:09:41.185Z,10.50
2022-10-23T12:12:30.205Z,4.63
2022-10-23T12:15:21.030Z,3.30
2022-10-23T12:17:50.345Z,5.37
2022-10-23T12:20:29.363Z,3.97
2022-10-23T12:23:17.295Z,5.87
2022-10-23T12:26:02.488Z,6.03
2022-10-23T12:28:38.424Z,4.60
2022-10-23T12:31:24.958Z,3.10
2022-10-23T12:34:01.776Z,3.50
2022-10-23T12:36:44.738Z,5.70
2022-10-23T12:39:32.505Z,4.07
2022-10-23T12:42:01.549Z,6.10
2022-10-23T12:44:30.516Z,4.00
2022-10-23T12:47:03.232Z,3.03
2022-10-23T12:49:34.716Z,4.53
2022-10-23T12:52:05.546Z,3.83
2022-10-23T12:54:39.588Z,2.87
2022-10-23T12:57:21.629Z,6.47
2022-10-23T12:59:50.829Z,5.83
2022-10-23T13:02:28.850Z,3.67
2022-10-23T13:05:01.109Z,3.87
2022-10-23T13:07:31.833Z,3.47
2022-10-23T13:10:00.677Z,4.53
2022-10-23T13:12:31.225Z,4.17
2022-10-23T13:15:03.871Z,3.10
2022-10-23T13:17:38.633Z,5.73
2022-10-23T13:20:12.234Z,8.87
2022-10-23T13:22:42.816Z,6.00
2022-10-23T13:25:24.861Z,10.23
2022-10-23T13:28:03.326Z,2.50
2022-10-23T13:30:33.890Z,3.30
2022-10-23T13:33:03.376Z,3.30
2022-10-23T13:35:31.483Z,8.70
2022-10-23T13:38:09.776Z,5.53
2022-10-23T13:40:37.969Z,3.20
2022-10-23T13:43:16.193Z,4.17
2022-10-23T13:45:44.288Z,3.63
2022-10-23T13:48:16.212Z,3.77
2022-10-23T13:50:44.480Z,4.10
2022-10-23T13:53:14.151Z,2.50
2022-10-23T13:55:44.120Z,4.57
2022-10-23T13:58:12.779Z,4.33
2022-10-23T14:00:43.554Z,6.73
2022-10-23T14:03:12.997Z,4.63
2022-10-23T14:05:41.461Z,4.07
2022-10-23T14:08:09.689Z,4.93
2022-10-23T14:10:37.852Z,9.53
2022-10-23T14:13:06.338Z,4.37
2022-10-23T14:15:34.914Z,3.03
2022-10-23T14:18:07.323Z,5.47
2022-10-23T14:20:40.546Z,3.00
2022-10-23T14:23:08.629Z,4.27
2022-10-23T14:25:36.839Z,4.20
2022-10-23T14:28:05.416Z,3.57
2022-10-23T14:30:33.652Z,5.40
2022-10-23T14:33:02.118Z,5.73
2022-10-23T14:35:30.294Z,6.90
2022-10-23T14:37:59.782Z,7.23
2022-10-23T14:40:28.309Z,4.20
2022-10-23T14:42:56.813Z,2.77
2022-10-23T14:45:25.613Z,4.50
2022-10-23T14:47:53.745Z,7.43
2022-10-23T14:50:22.351Z,2.80
2022-10-23T14:52:50.519Z,8.30
2022-10-23T14:55:20.563Z,7.37
2022-10-23T14:57:49.066Z,5.47
2022-10-23T15:00:17.649Z,5.23
2022-10-23T15:02:46.272Z,6.03
2022-10-23T15:05:14.823Z,5.17
2022-10-23T15:07:43.005Z,5.00
2022-10-23T15:10:11.889Z,6.97
2022-10-23T15:12:41.768Z,8.87
2022-10-23T15:15:10.798Z,10.57
2022-10-23T15:17:39.202Z,3.83
2022-10-23T15:20:09.116Z,3.77
2022-10-23T15:22:37.409Z,6.87
2022-10-23T15:25:06.461Z,9.27
2022-10-23T15:27:34.955Z,5.83
2022-10-23T15:30:04.704Z,8.13
2022-10-23T15:32:32.795Z,7.47
2022-10-23T15:35:01.076Z,6.10
2022-10-23T15:37:29.266Z,4.17
2022-10-23T15:40:01.278Z,6.57
2022-10-23T15:42:30.667Z,5.87
2022-10-23T15:44:58.918Z,7.57
2022-10-23T15:47:28.453Z,7.00
2022-10-23T15:49:56.958Z,12.40
2022-10-23T15:52:25.562Z,9.40
2022-10-23T15:54:53.649Z,11.93
2022-10-23T15:57:21.878Z,15.20
2022-10-23T15:59:51.162Z,18.80
2022-10-23T16:02:19.399Z,19.00
2022-10-23T16:04:49.085Z,17.13
2022-10-23T16:07:17.366Z,14.50
2022-10-23T16:09:45.550Z,16.57
2022-10-23T16:12:13.858Z,11.57
2022-10-23T16:14:42.145Z,8.13
2022-10-23T16:17:10.318Z,9.80
2022-10-23T16:19:38.822Z,8.57
2022-10-23T16:22:08.735Z,11.03
2022-10-23T16:24:36.898Z,13.40
2022-10-23T16:27:05.258Z,18.33
2022-10-23T16:29:33.869Z,6.30
2022-10-23T16:32:02.018Z,9.57
2022-10-23T16:34:30.546Z,7.43
2022-10-23T16:36:58.772Z,7.67
2022-10-23T16:39:29.158Z,9.67
2022-10-23T16:41:57.346Z,11.17
2022-10-23T16:44:25.666Z,8.93
2022-10-23T16:46:53.825Z,5.90
2022-10-23T16:49:21.981Z,8.63
2022-10-23T16:51:50.432Z,4.77
2022-10-23T16:54:18.604Z,7.93
2022-10-23T16:56:48.817Z,6.30
2022-10-23T16:59:17.240Z,13.37
2022-10-23T17:01:45.438Z,8.40
2022-10-23T17:04:14.120Z,9.70
2022-10-23T17:06:42.369Z,9.90
2022-10-23T17:09:10.516Z,6.87
2022-10-23T17:11:41.168Z,8.37
2022-10-23T17:14:15.197Z,9.37
2022-10-23T17:16:46.827Z,7.37
2022-10-23T17:19:33.013Z,9.13
2022-10-23T17:22:10.744Z,10.10
2022-10-23T17:24:40.978Z,14.50
2022-10-23T17:27:09.374Z,12.73
2022-10-23T17:29:39.494Z,13.73
2022-10-23T17:32:07.924Z,8.40
2022-10-23T17:34:36.178Z,28.67
2022-10-23T17:37:04.708Z,10.30
2022-10-23T17:39:33.269Z,14.90
2022-10-23T17:42:01.384Z,11.77
2022-10-23T17:44:30.325Z,9.83
2022-10-23T17:46:59.942Z,8.97
2022-10-23T17:49:28.083Z,31.47
2022-10-23T17:51:58.647Z,14.27
2022-10-23T17:54:28.014Z,14.43
2022-10-23T17:56:56.359Z,20.03
2022-10-23T17:59:24.662Z,25.03
2022-10-23T18:01:53.385Z,30.50
2022-10-23T18:04:23.032Z,28.27
2022-10-23T18:06:53.061Z,28.03
2022-10-23T18:09:22.402Z,24.20
2022-10-23T18:11:51.693Z,28.23
2022-10-23T18:14:22.279Z,31.83
2022-10-23T18:16:50.799Z,30.80
2022-10-23T18:19:19.712Z,36.20
2022-10-23T18:21:49.620Z,30.20
2022-10-23T18:24:18.293Z,27.37
2022-10-23T18:26:48.241Z,17.67
2022-10-23T18:29:18.520Z,19.60
2022-10-23T18:31:48.237Z,19.23
2022-10-23T18:34:18.768Z,19.53
2022-10-23T18:36:49.180Z,22.40
2022-10-23T18:39:20.125Z,10.93
2022-10-23T18:41:49.763Z,11.90
2022-10-23T18:44:20.718Z,14.80
2022-10-23T18:46:49.813Z,15.57
2022-10-23T18:49:19.773Z,15.10
2022-10-23T18:51:49.913Z,19.40
2022-10-23T18:54:20.098Z,20.57
2022-10-23T18:56:48.744Z,13.80
2022-10-23T18:59:19.604Z,13.37
2022-10-23T19:01:47.926Z,14.37
2022-10-23T19:04:17.989Z,16.07
2022-10-23T19:06:48.458Z,10.20
2022-10-23T19:09:17.489Z,17.57
2022-10-23T19:11:46.318Z,15.97
2022-10-23T19:14:14.677Z,15.77
2022-10-23T19:16:46.888Z,16.23
2022-10-23T19:19:20.852Z,10.90
2022-10-23T19:21:51.486Z,11.50
2022-10-23T19:24:23.823Z,12.40
2022-10-23T19:26:52.318Z,12.30
2022-10-23T19:29:23.729Z,13.57
2022-10-23T19:31:52.285Z,12.37
2022-10-23T19:34:22.872Z,8.93
2022-10-23T19:36:55.002Z,8.30
2022-10-23T19:39:25.289Z,12.50
2022-10-23T19:41:53.920Z,17.73
2022-10-23T19:44:22.603Z,6.93
2022-10-23T19:46:51.705Z,6.90
2022-10-23T19:49:20.417Z,7.13
2022-10-23T19:51:51.232Z,6.10
2022-10-23T19:54:21.905Z,10.43
2022-10-23T19:56:50.098Z,9.53
2022-10-23T19:59:19.351Z,10.50
2022-10-23T20:01:48.833Z,15.10
2022-10-23T20:04:17.875Z,7.27
2022-10-23T20:06:46.516Z,10.77
2022-10-23T20:09:14.661Z,8.10
2022-10-23T20:11:45.324Z,10.17
2022-10-23T20:14:14.146Z,7.03
2022-10-23T20:16:44.943Z,12.37
2022-10-23T20:19:15.446Z,15.83
2022-10-23T20:21:45.549Z,9.83
2022-10-23T20:24:15.866Z,13.20
2022-10-23T20:26:47.354Z,10.30
2022-10-23T20:29:15.733Z,11.23
2022-10-23T20:31:45.136Z,10.20
2022-10-23T20:34:13.861Z,19.47
2022-10-23T20:36:46.573Z,11.67
2022-10-23T20:39:17.489Z,10.07
2022-10-23T20:41:46.941Z,11.57
2022-10-23T20:46:46.104Z,10.10
2022-10-23T20:49:14.964Z,13.20
2022-10-23T20:51:43.696Z,8.23
2022-10-23T20:54:12.065Z,10.97
2022-10-23T20:56:41.084Z,10.07
2022-10-23T20:59:13.788Z,14.30
2022-10-23T21:01:43.447Z,14.13
2022-10-23T21:04:12.916Z,9.70
2022-10-23T21:06:57.752Z,19.37
2022-10-23T21:09:30.873Z,12.83
2022-10-23T21:11:59.156Z,10.97
2022-10-23T21:14:28.755Z,10.50
2022-10-23T21:16:57.071Z,18.20
2022-10-23T21:19:25.190Z,14.40
2022-10-23T21:21:53.534Z,17.77
2022-10-23T21:24:21.704Z,16.77
2022-10-23T21:26:50.350Z,14.77
2022-10-23T21:29:19.730Z,19.30
2022-10-23T21:31:55.009Z,13.50
2022-10-23T21:34:23.811Z,13.13
2022-10-23T21:39:40.497Z,15.50
2022-10-23T21:42:08.603Z,14.07
2022-10-23T21:44:36.855Z,13.40
2022-10-23T21:47:07.411Z,14.83
2022-10-23T21:49:35.655Z,11.83
2022-10-23T21:52:04.544Z,11.50
2022-10-23T21:54:33.041Z,7.47
2022-10-23T21:57:03.200Z,12.00
2022-10-23T21:59:33.143Z,11.27
2022-10-23T22:02:05.595Z,8.37
2022-10-23T22:04:34.669Z,9.03
2022-10-23T22:07:03.103Z,9.53
2022-10-23T22:09:32.184Z,7.90
2022-10-23T22:12:01.380Z,9.10
2022-10-23T22:14:29.573Z,7.07
2022-10-23T22:16:58.074Z,6.20
2022-10-23T22:19:27.591Z,6.93
2022-10-23T22:21:56.110Z,11.10
2022-10-23T22:24:24.396Z,6.87
2022-10-23T22:26:54.731Z,8.30
2022-10-23T22:29:25.226Z,7.53
2022-10-23T22:31:53.414Z,5.17
2022-10-23T22:34:28.675Z,6.23
2022-10-23T22:37:13.762Z,7.47
2022-10-23T22:39:42.510Z,5.63
2022-10-23T22:42:11.014Z,6.17
2022-10-23T22:44:39.354Z,5.80
2022-10-23T22:47:07.821Z,10.47
2022-10-23T22:49:35.969Z,9.70
2022-10-23T22:52:04.507Z,7.47
2022-10-23T22:54:34.202Z,8.17
2022-10-23T22:57:02.317Z,8.77
2022-10-23T22:59:30.498Z,9.13
2022-10-23T23:01:58.645Z,5.80
2022-10-23T23:04:43.099Z,6.57
2022-10-23T23:07:13.822Z,7.77
2022-10-23T23:09:44.741Z,8.53
2022-10-23T23:12:14.937Z,6.40
2022-10-23T23:14:43.574Z,9.97
2022-10-23T23:17:12.372Z,13.33
2022-10-23T23:19:40.685Z,8.53
2022-10-23T23:22:08.899Z,15.57
2022-10-23T23:24:37.091Z,9.50
2022-10-23T23:27:06.709Z,8.27
2022-10-23T23:29:35.015Z,8.87
2022-10-23T23:32:06.065Z,7.17
2022-10-23T23:34:34.850Z,10.47
2022-10-23T23:37:03.231Z,8.97
2022-10-23T23:39:31.362Z,8.53
2022-10-23T23:42:00.074Z,9.73
2022-10-23T23:44:29.581Z,10.90
2022-10-23T23:46:57.716Z,7.80
2022-10-23T23:49:26.345Z,9.00
2022-10-23T23:51:54.498Z,6.50
2022-10-23T23:54:22.582Z,8.93
2022-10-23T23:56:51.115Z,9.07
2022-10-23T23:59:19.648Z,7.67
